sensor_id;sensor_type;location;lat;lon;timestamp;pressure;altitude;pressure_sealevel;temperature;humidity
19086;BME280;9675;51.538;6.728;2023-05-02T00:02:03;101539.19;;;14.38;100.00
19086;BME280;9675;51.538;6.728;2023-05-02T00:04:30;101536.44;;;14.35;100.00
19086;BME280;9675;51.538;6.728;2023-05-02T00:06:57;101537.09;;;14.31;100.00
19086;BME280;9675;51.538;6.728;2023-05-02T00:09:25;101529.19;;;14.28;100.00
19086;BME280;9675;51.538;6.728;2023-05-02T00:11:52;101532.59;;;14.27;100.00
19086;BME280;9675;51.538;6.728;2023-05-02T00:14:19;101541.94;;;14.23;100.00
19086;BME280;9675;51.538;6.728;2023-05-02T00:16:46;101543.56;;;14.21;100.00
19086;BME280;9675;51.538;6.728;2023-05-02T00:19:13;101548.53;;;14.17;100.00
19086;BME280;9675;51.538;6.728;2023-05-02T00:21:40;101543.22;;;14.14;100.00
19086;BME280;9675;51.538;6.728;2023-05-02T00:24:07;101543.06;;;14.11;100.00
19086;BME280;9675;51.538;6.728;2023-05-02T00:26:36;101536.06;;;14.08;100.00
19086;BME280;9675;51.538;6.728;2023-05-02T00:29:03;101546.44;;;14.08;100.00
19086;BME280;9675;51.538;6.728;2023-05-02T00:31:30;101541.09;;;14.05;100.00
19086;BME280;9675;51.538;6.728;2023-05-02T00:33:57;101538.44;;;14.03;100.00
19086;BME280;9675;51.538;6.728;2023-05-02T00:36:26;101541.75;;;14.01;100.00
19086;BME280;9675;51.538;6.728;2023-05-02T00:38:53;101539.03;;;13.98;100.00
19086;BME280;9675;51.538;6.728;2023-05-02T00:41:20;101544.13;;;13.96;100.00
19086;BME280;9675;51.538;6.728;2023-05-02T00:43:49;101543.16;;;13.94;100.00
19086;BME280;9675;51.538;6.728;2023-05-02T00:46:16;101551.78;;;13.93;100.00
19086;BME280;9675;51.538;6.728;2023-05-02T00:48:43;101550.72;;;13.90;100.00
19086;BME280;9675;51.538;6.728;2023-05-02T00:51:10;101541.13;;;13.87;100.00
19086;BME280;9675;51.538;6.728;2023-05-02T00:53:39;101555.59;;;13.84;100.00
19086;BME280;9675;51.538;6.728;2023-05-02T00:56:07;101561.53;;;13.81;100.00
19086;BME280;9675;51.538;6.728;2023-05-02T00:58:35;101568.28;;;13.78;100.00
19086;BME280;9675;51.538;6.728;2023-05-02T01:01:25;101567.19;;;13.73;100.00
19086;BME280;9675;51.538;6.728;2023-05-02T01:04:10;101578.25;;;13.70;100.00
19086;BME280;9675;51.538;6.728;2023-05-02T01:06:55;101566.06;;;13.68;100.00
19086;BME280;9675;51.538;6.728;2023-05-02T01:09:40;101566.06;;;13.68;100.00
19086;BME280;9675;51.538;6.728;2023-05-02T01:12:28;101575.53;;;13.67;100.00
19086;BME280;9675;51.538;6.728;2023-05-02T01:14:58;101573.75;;;13.66;100.00
19086;BME280;9675;51.538;6.728;2023-05-02T01:17:31;101577.22;;;13.67;100.00
19086;BME280;9675;51.538;6.728;2023-05-02T01:20:05;101573.75;;;13.66;100.00
19086;BME280;9675;51.538;6.728;2023-05-02T01:22:37;101576.16;;;13.63;100.00
19086;BME280;9675;51.538;6.728;2023-05-02T01:25:17;101576.03;;;13.60;100.00
19086;BME280;9675;51.538;6.728;2023-05-02T01:27:56;101584.59;;;13.59;100.00
19086;BME280;9675;51.538;6.728;2023-05-02T01:30:33;101577.59;;;13.56;100.00
19086;BME280;9675;51.538;6.728;2023-05-02T01:33:04;101584.47;;;13.56;100.00
19086;BME280;9675;51.538;6.728;2023-05-02T01:35:34;101588.66;;;13.54;100.00
19086;BME280;9675;51.538;6.728;2023-05-02T01:38:05;101592.88;;;13.52;100.00
19086;BME280;9675;51.538;6.728;2023-05-02T01:40:35;101593.63;;;13.49;100.00
19086;BME280;9675;51.538;6.728;2023-05-02T01:43:06;101603.06;;;13.49;100.00
19086;BME280;9675;51.538;6.728;2023-05-02T01:45:36;101608.25;;;13.49;100.00
19086;BME280;9675;51.538;6.728;2023-05-02T01:48:06;101604.72;;;13.47;100.00
19086;BME280;9675;51.538;6.728;2023-05-02T01:50:36;101607.31;;;13.47;100.00
19086;BME280;9675;51.538;6.728;2023-05-02T01:53:07;101595.88;;;13.43;100.00
19086;BME280;9675;51.538;6.728;2023-05-02T01:55:37;101603.66;;;13.43;100.00
19086;BME280;9675;51.538;6.728;2023-05-02T01:58:06;101607.94;;;13.43;100.00
19086;BME280;9675;51.538;6.728;2023-05-02T02:00:35;101607.94;;;13.43;100.00
19086;BME280;9675;51.538;6.728;2023-05-02T02:03:05;101607.00;;;13.41;100.00
19086;BME280;9675;51.538;6.728;2023-05-02T02:05:34;101615.63;;;13.41;100.00
19086;BME280;9675;51.538;6.728;2023-05-02T02:08:03;101616.34;;;13.39;100.00
19086;BME280;9675;51.538;6.728;2023-05-02T02:10:39;101621.53;;;13.39;100.00
19086;BME280;9675;51.538;6.728;2023-05-02T02:13:16;101623.31;;;13.40;100.00
19086;BME280;9675;51.538;6.728;2023-05-02T02:15:46;101627.50;;;13.38;100.00
19086;BME280;9675;51.538;6.728;2023-05-02T02:18:20;101627.47;;;13.36;100.00
19086;BME280;9675;51.538;6.728;2023-05-02T02:20:50;101629.97;;;13.35;100.00
19086;BME280;9675;51.538;6.728;2023-05-02T02:23:22;101633.44;;;13.35;100.00
19086;BME280;9675;51.538;6.728;2023-05-02T02:25:53;101635.03;;;13.33;100.00
19086;BME280;9675;51.538;6.728;2023-05-02T02:28:21;101639.31;;;13.33;100.00
19086;BME280;9675;51.538;6.728;2023-05-02T02:30:49;101634.25;;;13.34;100.00
19086;BME280;9675;51.538;6.728;2023-05-02T02:33:17;101636.75;;;13.33;100.00
19086;BME280;9675;51.538;6.728;2023-05-02T02:35:55;101638.38;;;13.31;100.00
19086;BME280;9675;51.538;6.728;2023-05-02T02:38:31;101638.19;;;13.28;100.00
19086;BME280;9675;51.538;6.728;2023-05-02T02:41:13;101640.78;;;13.28;100.00
19086;BME280;9675;51.538;6.728;2023-05-02T02:43:52;101641.59;;;13.27;100.00
19086;BME280;9675;51.538;6.728;2023-05-02T02:46:33;101644.19;;;13.27;100.00
19086;BME280;9675;51.538;6.728;2023-05-02T02:49:33;101642.47;;;13.27;100.00
19086;BME280;9675;51.538;6.728;2023-05-02T02:52:09;101633.03;;;13.28;100.00
19086;BME280;9675;51.538;6.728;2023-05-02T02:54:45;101638.19;;;13.28;100.00
19086;BME280;9675;51.538;6.728;2023-05-02T02:57:19;101639.00;;;13.27;100.00
19086;BME280;9675;51.538;6.728;2023-05-02T02:59:57;101639.84;;;13.26;100.00
19086;BME280;9675;51.538;6.728;2023-05-02T03:02:30;101639.84;;;13.26;100.00
19086;BME280;9675;51.538;6.728;2023-05-02T03:05:00;101641.59;;;13.27;100.00
19086;BME280;9675;51.538;6.728;2023-05-02T03:07:29;101650.19;;;13.26;100.00
19086;BME280;9675;51.538;6.728;2023-05-02T03:09:56;101648.41;;;13.25;100.00
19086;BME280;9675;51.538;6.728;2023-05-02T03:12:23;101653.56;;;13.25;100.00
19086;BME280;9675;51.538;6.728;2023-05-02T03:14:50;101656.97;;;13.24;100.00
19086;BME280;9675;51.538;6.728;2023-05-02T03:17:17;101655.13;;;13.21;100.00
19086;BME280;9675;51.538;6.728;2023-05-02T03:19:46;101656.81;;;13.21;100.00
19086;BME280;9675;51.538;6.728;2023-05-02T03:22:13;101665.38;;;13.19;100.00
19086;BME280;9675;51.538;6.728;2023-05-02T03:24:40;101664.41;;;13.17;100.00
19086;BME280;9675;51.538;6.728;2023-05-02T03:27:07;101661.81;;;13.17;100.00
19086;BME280;9675;51.538;6.728;2023-05-02T03:29:34;101665.22;;;13.16;100.00
19086;BME280;9675;51.538;6.728;2023-05-02T03:32:01;101672.00;;;13.14;100.00
19086;BME280;9675;51.538;6.728;2023-05-02T03:34:28;101666.84;;;13.14;100.00
19086;BME280;9675;51.538;6.728;2023-05-02T03:36:56;101669.34;;;13.13;100.00
19086;BME280;9675;51.538;6.728;2023-05-02T03:39:23;101671.13;;;13.14;100.00
19086;BME280;9675;51.538;6.728;2023-05-02T03:41:50;101680.56;;;13.13;100.00
19086;BME280;9675;51.538;6.728;2023-05-02T03:44:17;101684.75;;;13.11;100.00
19086;BME280;9675;51.538;6.728;2023-05-02T03:46:44;101684.66;;;13.10;100.00
19086;BME280;9675;51.538;6.728;2023-05-02T03:49:11;101681.09;;;13.08;100.00
19086;BME280;9675;51.538;6.728;2023-05-02T03:51:38;101683.59;;;13.06;100.00
19086;BME280;9675;51.538;6.728;2023-05-02T03:54:06;101688.78;;;13.06;100.00
19086;BME280;9675;51.538;6.728;2023-05-02T03:56:34;101693.94;;;13.06;100.00
19086;BME280;9675;51.538;6.728;2023-05-02T03:59:01;101695.56;;;13.04;100.00
19086;BME280;9675;51.538;6.728;2023-05-02T04:01:30;101688.63;;;13.03;100.00
19086;BME280;9675;51.538;6.728;2023-05-02T04:03:57;101692.00;;;13.02;100.00
19086;BME280;9675;51.538;6.728;2023-05-02T04:06:24;101704.13;;;13.03;100.00
19086;BME280;9675;51.538;6.728;2023-05-02T04:08:51;101702.34;;;13.02;100.00
19086;BME280;9675;51.538;6.728;2023-05-02T04:11:20;101708.31;;;13.01;100.00
19086;BME280;9675;51.538;6.728;2023-05-02T04:13:47;101711.75;;;13.00;100.00
19086;BME280;9675;51.538;6.728;2023-05-02T04:16:14;101715.19;;;13.01;100.00
19086;BME280;9675;51.538;6.728;2023-05-02T04:18:41;101715.13;;;12.99;100.00
19086;BME280;9675;51.538;6.728;2023-05-02T04:21:08;101717.72;;;12.99;100.00
19086;BME280;9675;51.538;6.728;2023-05-02T04:23:35;101719.31;;;12.97;100.00
19086;BME280;9675;51.538;6.728;2023-05-02T04:26:02;101719.22;;;12.96;100.00
19086;BME280;9675;51.538;6.728;2023-05-02T04:28:31;101728.72;;;12.95;100.00
19086;BME280;9675;51.538;6.728;2023-05-02T04:30:58;101735.56;;;12.95;100.00
19086;BME280;9675;51.538;6.728;2023-05-02T04:33:25;101732.78;;;12.92;100.00
19086;BME280;9675;51.538;6.728;2023-05-02T04:35:52;101740.22;;;12.86;100.00
19086;BME280;9675;51.538;6.728;2023-05-02T04:38:19;101744.50;;;12.85;100.00
19086;BME280;9675;51.538;6.728;2023-05-02T04:40:49;101752.25;;;12.85;100.00
19086;BME280;9675;51.538;6.728;2023-05-02T04:43:16;101754.81;;;12.85;100.00
19086;BME280;9675;51.538;6.728;2023-05-02T04:45:44;101748.81;;;12.85;100.00
19086;BME280;9675;51.538;6.728;2023-05-02T04:48:11;101760.75;;;12.83;100.00
19086;BME280;9675;51.538;6.728;2023-05-02T04:50:38;101765.00;;;12.82;100.00
19086;BME280;9675;51.538;6.728;2023-05-02T04:53:05;101762.34;;;12.81;100.00
19086;BME280;9675;51.538;6.728;2023-05-02T04:55:32;101776.94;;;12.80;100.00
19086;BME280;9675;51.538;6.728;2023-05-02T04:57:59;101771.78;;;12.80;100.00
19086;BME280;9675;51.538;6.728;2023-05-02T05:00:26;101789.81;;;12.78;100.00
19086;BME280;9675;51.538;6.728;2023-05-02T05:02:54;101793.19;;;12.77;100.00
19086;BME280;9675;51.538;6.728;2023-05-02T05:05:21;101793.09;;;12.76;100.00
19086;BME280;9675;51.538;6.728;2023-05-02T05:07:48;101797.31;;;12.74;100.00
19086;BME280;9675;51.538;6.728;2023-05-02T05:10:17;101807.66;;;12.74;100.00
19086;BME280;9675;51.538;6.728;2023-05-02T05:12:44;101809.34;;;12.73;100.00
19086;BME280;9675;51.538;6.728;2023-05-02T05:15:12;101811.03;;;12.73;100.00
19086;BME280;9675;51.538;6.728;2023-05-02T05:17:39;101811.72;;;12.70;100.00
19086;BME280;9675;51.538;6.728;2023-05-02T05:20:08;101805.66;;;12.70;100.00
19086;BME280;9675;51.538;6.728;2023-05-02T05:22:38;101809.09;;;12.69;100.00
19086;BME280;9675;51.538;6.728;2023-05-02T05:25:07;101807.31;;;12.68;100.00
19086;BME280;9675;51.538;6.728;2023-05-02T05:27:35;101817.53;;;12.66;100.00
19086;BME280;9675;51.538;6.728;2023-05-02T05:30:02;101822.59;;;12.65;100.00
19086;BME280;9675;51.538;6.728;2023-05-02T05:32:31;101827.78;;;12.65;100.00
19086;BME280;9675;51.538;6.728;2023-05-02T05:34:58;101829.47;;;12.64;100.00
19086;BME280;9675;51.538;6.728;2023-05-02T05:37:27;101838.84;;;12.62;100.00
19086;BME280;9675;51.538;6.728;2023-05-02T05:39:54;101836.25;;;12.62;100.00
19086;BME280;9675;51.538;6.728;2023-05-02T05:42:21;101838.84;;;12.62;100.00
19086;BME280;9675;51.538;6.728;2023-05-02T05:44:48;101849.88;;;12.60;100.00
19086;BME280;9675;51.538;6.728;2023-05-02T05:47:19;101848.13;;;12.59;100.00
19086;BME280;9675;51.538;6.728;2023-05-02T05:49:47;101852.41;;;12.58;100.00
19086;BME280;9675;51.538;6.728;2023-05-02T05:52:18;101853.19;;;12.57;100.00
19086;BME280;9675;51.538;6.728;2023-05-02T05:54:46;101863.53;;;12.57;100.00
19086;BME280;9675;51.538;6.728;2023-05-02T05:57:13;101862.63;;;12.57;100.00
19086;BME280;9675;51.538;6.728;2023-05-02T05:59:41;101869.50;;;12.56;100.00
19086;BME280;9675;51.538;6.728;2023-05-02T06:02:08;101874.66;;;12.56;100.00
19086;BME280;9675;51.538;6.728;2023-05-02T06:04:35;101871.19;;;12.56;100.00
19086;BME280;9675;51.538;6.728;2023-05-02T06:07:02;101869.41;;;12.55;100.00
19086;BME280;9675;51.538;6.728;2023-05-02T06:09:29;101868.81;;;12.59;100.00
19086;BME280;9675;51.538;6.728;2023-05-02T06:11:57;101872.19;;;12.58;100.00
19086;BME280;9675;51.538;6.728;2023-05-02T06:14:24;101877.34;;;12.58;100.00
19086;BME280;9675;51.538;6.728;2023-05-02T06:16:51;101882.50;;;12.58;100.00
19086;BME280;9675;51.538;6.728;2023-05-02T06:19:18;101877.25;;;12.56;100.00
19086;BME280;9675;51.538;6.728;2023-05-02T06:21:45;101882.31;;;12.55;100.00
19086;BME280;9675;51.538;6.728;2023-05-02T06:24:12;101890.91;;;12.54;100.00
19086;BME280;9675;51.538;6.728;2023-05-02T06:26:39;101894.44;;;12.56;100.00
19086;BME280;9675;51.538;6.728;2023-05-02T06:29:08;101902.09;;;12.54;100.00
19086;BME280;9675;51.538;6.728;2023-05-02T06:31:35;101909.69;;;12.51;100.00
19086;BME280;9675;51.538;6.728;2023-05-02T06:34:05;101912.16;;;12.50;100.00
19086;BME280;9675;51.538;6.728;2023-05-02T06:36:32;101925.81;;;12.47;100.00
19086;BME280;9675;51.538;6.728;2023-05-02T06:38:59;101932.66;;;12.47;100.00
19086;BME280;9675;51.538;6.728;2023-05-02T06:41:26;101936.03;;;12.46;100.00
19086;BME280;9675;51.538;6.728;2023-05-02T06:43:53;101943.63;;;12.43;100.00
19086;BME280;9675;51.538;6.728;2023-05-02T06:46:22;101944.41;;;12.42;100.00
19086;BME280;9675;51.538;6.728;2023-05-02T06:48:49;101946.78;;;12.39;100.00
19086;BME280;9675;51.538;6.728;2023-05-02T06:51:16;101960.44;;;12.36;100.00
19086;BME280;9675;51.538;6.728;2023-05-02T06:53:44;101964.72;;;12.35;100.00
19086;BME280;9675;51.538;6.728;2023-05-02T06:56:11;101965.50;;;12.34;100.00
19086;BME280;9675;51.538;6.728;2023-05-02T06:58:38;101964.72;;;12.35;100.00
19086;BME280;9675;51.538;6.728;2023-05-02T07:01:05;101964.53;;;12.32;100.00
19086;BME280;9675;51.538;6.728;2023-05-02T07:03:33;101968.00;;;12.33;100.00
19086;BME280;9675;51.538;6.728;2023-05-02T07:06:00;101976.56;;;12.32;100.00
19086;BME280;9675;51.538;6.728;2023-05-02T07:08:27;101977.44;;;12.32;100.00
19086;BME280;9675;51.538;6.728;2023-05-02T07:10:54;101981.78;;;12.33;100.00
19086;BME280;9675;51.538;6.728;2023-05-02T07:13:21;101992.22;;;12.35;100.00
19086;BME280;9675;51.538;6.728;2023-05-02T07:15:48;101989.75;;;12.37;100.00
19086;BME280;9675;51.538;6.728;2023-05-02T07:18:15;101996.50;;;12.34;100.00
19086;BME280;9675;51.538;6.728;2023-05-02T07:20:44;101998.91;;;12.31;100.00
19086;BME280;9675;51.538;6.728;2023-05-02T07:23:11;101997.22;;;12.32;100.00
19086;BME280;9675;51.538;6.728;2023-05-02T07:25:38;102010.03;;;12.30;100.00
19086;BME280;9675;51.538;6.728;2023-05-02T07:28:05;102013.59;;;12.32;100.00
19086;BME280;9675;51.538;6.728;2023-05-02T07:30:32;102012.72;;;12.32;100.00
19086;BME280;9675;51.538;6.728;2023-05-02T07:32:59;102016.19;;;12.32;100.00
19086;BME280;9675;51.538;6.728;2023-05-02T07:35:26;102013.59;;;12.32;100.00
19086;BME280;9675;51.538;6.728;2023-05-02T07:37:55;102029.09;;;12.32;100.00
19086;BME280;9675;51.538;6.728;2023-05-02T07:40:22;102023.94;;;12.32;100.00
19086;BME280;9675;51.538;6.728;2023-05-02T07:42:49;102025.69;;;12.33;100.00
19086;BME280;9675;51.538;6.728;2023-05-02T07:45:16;102031.69;;;12.32;100.00
19086;BME280;9675;51.538;6.728;2023-05-02T07:47:44;102037.94;;;12.36;100.00
19086;BME280;9675;51.538;6.728;2023-05-02T07:50:11;102037.03;;;12.35;100.00
19086;BME280;9675;51.538;6.728;2023-05-02T07:52:38;102041.41;;;12.37;100.00
19086;BME280;9675;51.538;6.728;2023-05-02T07:55:08;102052.63;;;12.37;100.00
19086;BME280;9675;51.538;6.728;2023-05-02T07:57:35;102054.22;;;12.35;100.00
19086;BME280;9675;51.538;6.728;2023-05-02T08:00:03;102058.69;;;12.38;100.00
19086;BME280;9675;51.538;6.728;2023-05-02T08:02:32;102062.75;;;12.34;100.00
19086;BME280;9675;51.538;6.728;2023-05-02T08:05:01;102067.75;;;12.31;100.00
19086;BME280;9675;51.538;6.728;2023-05-02T08:07:28;102073.59;;;12.28;100.00
19086;BME280;9675;51.538;6.728;2023-05-02T08:09:55;102080.38;;;12.26;100.00
19086;BME280;9675;51.538;6.728;2023-05-02T08:12:24;102075.00;;;12.23;100.00
19086;BME280;9675;51.538;6.728;2023-05-02T08:14:51;102084.44;;;12.23;100.00
19086;BME280;9675;51.538;6.728;2023-05-02T08:17:18;102087.00;;;12.23;100.00
19086;BME280;9675;51.538;6.728;2023-05-02T08:19:46;102098.25;;;12.23;100.00
19086;BME280;9675;51.538;6.728;2023-05-02T08:22:12;102091.31;;;12.22;100.00
19086;BME280;9675;51.538;6.728;2023-05-02T08:24:39;102099.06;;;12.22;100.00
19086;BME280;9675;51.538;6.728;2023-05-02T08:27:06;102103.34;;;12.22;100.00
19086;BME280;9675;51.538;6.728;2023-05-02T08:29:35;102098.25;;;12.23;100.00
19086;BME280;9675;51.538;6.728;2023-05-02T08:32:02;102111.38;;;12.26;100.00
19086;BME280;9675;51.538;6.728;2023-05-02T08:34:29;102110.38;;;12.24;100.00
19086;BME280;9675;51.538;6.728;2023-05-02T08:36:58;102116.44;;;12.25;100.00
19086;BME280;9675;51.538;6.728;2023-05-02T08:39:25;102112.16;;;12.25;100.00
19086;BME280;9675;51.538;6.728;2023-05-02T08:41:52;102112.94;;;12.24;100.00
19086;BME280;9675;51.538;6.728;2023-05-02T08:44:19;102122.59;;;12.27;100.00
19086;BME280;9675;51.538;6.728;2023-05-02T08:46:49;102124.34;;;12.28;100.00
19086;BME280;9675;51.538;6.728;2023-05-02T08:49:19;102130.41;;;12.28;100.00
19086;BME280;9675;51.538;6.728;2023-05-02T08:51:48;102130.34;;;12.27;98.87
19086;BME280;9675;51.538;6.728;2023-05-02T08:54:18;102133.81;;;12.27;99.39
19086;BME280;9675;51.538;6.728;2023-05-02T08:56:47;102137.59;;;12.32;99.25
19086;BME280;9675;51.538;6.728;2023-05-02T08:59:14;102136.75;;;12.33;99.10
19086;BME280;9675;51.538;6.728;2023-05-02T09:01:44;102136.97;;;12.37;96.59
19086;BME280;9675;51.538;6.728;2023-05-02T09:04:18;102133.66;;;12.39;94.90
19086;BME280;9675;51.538;6.728;2023-05-02T09:06:46;102139.72;;;12.40;92.70
19086;BME280;9675;51.538;6.728;2023-05-02T09:09:13;102140.75;;;12.42;93.40
19086;BME280;9675;51.538;6.728;2023-05-02T09:11:41;102145.28;;;12.46;93.16
19086;BME280;9675;51.538;6.728;2023-05-02T09:14:14;102149.06;;;12.51;89.98
19086;BME280;9675;51.538;6.728;2023-05-02T09:16:41;102154.44;;;12.54;90.74
19086;BME280;9675;51.538;6.728;2023-05-02T09:19:09;102150.34;;;12.57;89.28
19086;BME280;9675;51.538;6.728;2023-05-02T09:21:39;102156.56;;;12.61;87.70
19086;BME280;9675;51.538;6.728;2023-05-02T09:24:15;102160.16;;;12.63;87.38
19086;BME280;9675;51.538;6.728;2023-05-02T09:26:57;102163.81;;;12.66;87.19
19086;BME280;9675;51.538;6.728;2023-05-02T09:29:26;102164.00;;;12.69;85.77
19086;BME280;9675;51.538;6.728;2023-05-02T09:31:55;102165.91;;;12.72;84.79
19086;BME280;9675;51.538;6.728;2023-05-02T09:34:22;102166.97;;;12.75;83.93
19086;BME280;9675;51.538;6.728;2023-05-02T09:36:51;102169.84;;;12.80;84.02
19086;BME280;9675;51.538;6.728;2023-05-02T09:39:21;102170.22;;;12.86;83.77
19086;BME280;9675;51.538;6.728;2023-05-02T09:41:49;102177.28;;;12.89;83.42
19086;BME280;9675;51.538;6.728;2023-05-02T09:44:20;102178.34;;;12.92;83.47
19086;BME280;9675;51.538;6.728;2023-05-02T09:46:50;102184.59;;;12.96;80.37
19086;BME280;9675;51.538;6.728;2023-05-02T09:49:26;102182.72;;;12.93;74.89
19086;BME280;9675;51.538;6.728;2023-05-02T09:52:11;102186.31;;;12.95;74.48
19086;BME280;9675;51.538;6.728;2023-05-02T09:54:39;102189.88;;;12.97;72.53
19086;BME280;9675;51.538;6.728;2023-05-02T09:57:06;102191.84;;;13.01;72.35
19086;BME280;9675;51.538;6.728;2023-05-02T09:59:33;102200.78;;;13.06;70.83
19086;BME280;9675;51.538;6.728;2023-05-02T10:02:02;102200.59;;;13.03;70.15
19086;BME280;9675;51.538;6.728;2023-05-02T10:04:31;102206.56;;;13.02;69.44
19086;BME280;9675;51.538;6.728;2023-05-02T10:07:00;102206.56;;;13.02;68.03
19086;BME280;9675;51.538;6.728;2023-05-02T10:09:29;102205.94;;;13.06;67.18
19086;BME280;9675;51.538;6.728;2023-05-02T10:12:02;102204.25;;;13.07;69.31
19086;BME280;9675;51.538;6.728;2023-05-02T10:14:30;102230.44;;;13.11;67.29
19086;BME280;9675;51.538;6.728;2023-05-02T10:17:10;102220.88;;;13.10;66.24
19086;BME280;9675;51.538;6.728;2023-05-02T10:19:46;102217.38;;;13.10;64.57
19086;BME280;9675;51.538;6.728;2023-05-02T10:22:18;102209.53;;;13.08;63.46
19086;BME280;9675;51.538;6.728;2023-05-02T10:24:48;102221.56;;;13.08;62.11
19086;BME280;9675;51.538;6.728;2023-05-02T10:27:16;102217.50;;;13.11;61.83
19086;BME280;9675;51.538;6.728;2023-05-02T10:29:43;102222.78;;;13.13;61.63
19086;BME280;9675;51.538;6.728;2023-05-02T10:32:13;102223.25;;;13.21;62.28
19086;BME280;9675;51.538;6.728;2023-05-02T10:34:41;102220.16;;;13.26;62.03
19086;BME280;9675;51.538;6.728;2023-05-02T10:37:08;102215.25;;;13.31;60.77
19086;BME280;9675;51.538;6.728;2023-05-02T10:39:35;102221.13;;;13.43;60.98
19086;BME280;9675;51.538;6.728;2023-05-02T10:42:05;102221.09;;;13.56;60.78
19086;BME280;9675;51.538;6.728;2023-05-02T10:44:33;102219.13;;;13.67;59.80
19086;BME280;9675;51.538;6.728;2023-05-02T10:47:02;102229.13;;;13.75;58.75
19086;BME280;9675;51.538;6.728;2023-05-02T10:49:50;102222.09;;;13.87;58.11
19086;BME280;9675;51.538;6.728;2023-05-02T10:52:29;102215.09;;;14.01;57.81
19086;BME280;9675;51.538;6.728;2023-05-02T10:55:16;102216.25;;;14.06;56.71
19086;BME280;9675;51.538;6.728;2023-05-02T10:58:20;102224.41;;;13.97;56.96
19086;BME280;9675;51.538;6.728;2023-05-02T11:00:48;102215.22;;;13.88;56.99
19086;BME280;9675;51.538;6.728;2023-05-02T11:03:53;102226.09;;;13.82;57.46
19086;BME280;9675;51.538;6.728;2023-05-02T11:06:21;102225.09;;;13.80;56.75
19086;BME280;9675;51.538;6.728;2023-05-02T11:08:52;102233.88;;;13.82;56.48
19086;BME280;9675;51.538;6.728;2023-05-02T11:11:39;102232.19;;;13.83;56.61
19086;BME280;9675;51.538;6.728;2023-05-02T11:14:09;102231.53;;;13.87;55.97
19086;BME280;9675;51.538;6.728;2023-05-02T11:17:07;102237.16;;;13.94;56.60
19086;BME280;9675;51.538;6.728;2023-05-02T11:20:22;102228.59;;;13.95;55.30
19086;BME280;9675;51.538;6.728;2023-05-02T11:22:54;102224.31;;;13.96;55.37
19086;BME280;9675;51.538;6.728;2023-05-02T11:25:37;102236.63;;;14.00;55.35
19086;BME280;9675;51.538;6.728;2023-05-02T11:28:07;102231.63;;;14.03;54.87
19086;BME280;9675;51.538;6.728;2023-05-02T11:30:45;102220.38;;;14.02;55.13
19086;BME280;9675;51.538;6.728;2023-05-02T11:33:15;102227.34;;;14.03;54.58
19086;BME280;9675;51.538;6.728;2023-05-02T11:35:45;102225.03;;;14.08;55.13
19086;BME280;9675;51.538;6.728;2023-05-02T11:38:15;102227.06;;;14.14;54.86
19086;BME280;9675;51.538;6.728;2023-05-02T11:40:57;102226.25;;;14.15;53.93
19086;BME280;9675;51.538;6.728;2023-05-02T11:43:26;102217.88;;;14.19;54.80
19086;BME280;9675;51.538;6.728;2023-05-02T11:45:56;102226.94;;;14.27;53.55
19086;BME280;9675;51.538;6.728;2023-05-02T11:48:25;102226.50;;;14.34;54.35
19086;BME280;9675;51.538;6.728;2023-05-02T11:50:58;102225.91;;;14.38;53.98
19086;BME280;9675;51.538;6.728;2023-05-02T11:53:28;102238.22;;;14.42;53.31
19086;BME280;9675;51.538;6.728;2023-05-02T11:55:58;102233.91;;;14.42;52.95
19086;BME280;9675;51.538;6.728;2023-05-02T11:58:27;102236.66;;;14.45;53.26
19086;BME280;9675;51.538;6.728;2023-05-02T12:01:13;102242.16;;;14.50;52.56
19086;BME280;9675;51.538;6.728;2023-05-02T12:03:41;102249.44;;;14.57;52.40
19086;BME280;9675;51.538;6.728;2023-05-02T12:06:09;102249.44;;;14.57;52.26
19086;BME280;9675;51.538;6.728;2023-05-02T12:08:38;102245.34;;;14.61;51.74
19086;BME280;9675;51.538;6.728;2023-05-02T12:11:05;102252.28;;;14.62;51.84
19086;BME280;9675;51.538;6.728;2023-05-02T12:13:32;102250.84;;;14.67;51.15
19086;BME280;9675;51.538;6.728;2023-05-02T12:16:01;102244.38;;;14.75;51.16
19086;BME280;9675;51.538;6.728;2023-05-02T12:18:29;102250.81;;;14.81;51.21
19086;BME280;9675;51.538;6.728;2023-05-02T12:20:58;102255.41;;;14.87;51.05
19086;BME280;9675;51.538;6.728;2023-05-02T12:23:35;102258.34;;;14.93;50.71
19086;BME280;9675;51.538;6.728;2023-05-02T12:26:16;102261.94;;;14.95;50.74
19086;BME280;9675;51.538;6.728;2023-05-02T12:28:48;102257.78;;;14.99;50.71
19086;BME280;9675;51.538;6.728;2023-05-02T12:31:17;102253.94;;;15.07;50.58
19086;BME280;9675;51.538;6.728;2023-05-02T12:33:50;102261.22;;;15.14;50.58
19086;BME280;9675;51.538;6.728;2023-05-02T12:36:22;102262.53;;;15.22;50.51
19086;BME280;9675;51.538;6.728;2023-05-02T12:38:51;102262.88;;;15.28;50.23
19086;BME280;9675;51.538;6.728;2023-05-02T12:41:33;102276.31;;;15.37;50.21
19086;BME280;9675;51.538;6.728;2023-05-02T12:44:03;102271.38;;;15.42;49.73
19086;BME280;9675;51.538;6.728;2023-05-02T12:46:32;102270.03;;;15.50;50.03
19086;BME280;9675;51.538;6.728;2023-05-02T12:49:02;102267.81;;;15.56;49.95
19086;BME280;9675;51.538;6.728;2023-05-02T12:51:30;102267.91;;;15.57;49.56
19086;BME280;9675;51.538;6.728;2023-05-02T12:54:18;102273.41;;;15.63;49.62
19086;BME280;9675;51.538;6.728;2023-05-02T12:56:45;102274.56;;;15.68;49.14
19086;BME280;9675;51.538;6.728;2023-05-02T12:59:26;102277.47;;;15.75;49.26
19086;BME280;9675;51.538;6.728;2023-05-02T13:01:55;102282.94;;;15.81;48.65
19086;BME280;9675;51.538;6.728;2023-05-02T13:04:33;102288.19;;;15.98;48.15
19086;BME280;9675;51.538;6.728;2023-05-02T13:07:00;102287.88;;;16.44;46.91
19086;BME280;9675;51.538;6.728;2023-05-02T13:09:28;102265.59;;;16.84;46.47